Time;durP1;ratioP1;P1;durP2;ratioP2;P2;SDS_P1;SDS_P2;PMS_P1;PMS_P2;Temp;Humidity;BMP_temperature;BMP_pressure;BME280_temperature;BME280_humidity;BME280_pressure;Samples;Min_cycle;Max_cycle;Signal;HPM_P1;HPM_P2
2021/10/30 00:01:21;;;;;;;10.98;5.70;;;12.50;99.00;;;;;;5072737;28;20103;-76
2021/10/30 00:03:47;;;;;;;9.38;4.88;;;12.50;99.00;;;;;;5072844;28;20388;-77
2021/10/30 00:06:12;;;;;;;10.98;5.05;;;12.50;98.90;;;;;;5074083;28;20036;-77
2021/10/30 00:08:38;;;;;;;9.27;5.03;;;12.40;98.90;;;;;;5072704;28;20032;-78
2021/10/30 00:11:03;;;;;;;10.93;5.78;;;12.50;99.00;;;;;;5072691;28;20025;-77
2021/10/30 00:13:29;;;;;;;8.57;5.65;;;12.50;99.00;;;;;;5056291;28;20037;-77
2021/10/30 00:15:57;;;;;;;9.27;5.43;;;12.40;99.00;;;;;;5073015;28;20035;-78
2021/10/30 00:18:22;;;;;;;14.68;6.20;;;12.40;99.00;;;;;;5054652;28;20028;-77
2021/10/30 00:20:48;;;;;;;12.57;6.18;;;12.40;99.00;;;;;;5073436;28;20078;-77
2021/10/30 00:23:14;;;;;;;12.80;6.78;;;12.40;98.90;;;;;;5071999;28;20017;-77
2021/10/30 00:25:40;;;;;;;11.07;5.72;;;12.40;98.90;;;;;;5073671;28;20035;-77
2021/10/30 00:28:05;;;;;;;10.32;5.95;;;12.40;98.90;;;;;;5072239;28;20480;-77
2021/10/30 00:30:31;;;;;;;9.50;6.10;;;12.40;98.90;;;;;;5069940;28;20116;-78
2021/10/30 00:32:56;;;;;;;9.30;5.90;;;12.40;99.00;;;;;;5055415;28;20128;-77
2021/10/30 00:35:22;;;;;;;10.52;6.93;;;12.30;99.00;;;;;;5072192;28;20074;-77
2021/10/30 00:37:48;;;;;;;11.98;7.20;;;12.40;99.00;;;;;;5055608;28;20499;-78
2021/10/30 00:40:13;;;;;;;11.15;6.13;;;12.40;99.00;;;;;;5055503;28;20120;-77
2021/10/30 00:42:39;;;;;;;11.90;6.47;;;12.30;98.90;;;;;;5073435;28;20025;-77
2021/10/30 00:45:06;;;;;;;15.10;7.30;;;12.30;98.90;;;;;;5073368;28;20542;-77
2021/10/30 00:47:32;;;;;;;11.50;7.72;;;12.30;98.90;;;;;;5061880;28;20029;-77
2021/10/30 00:49:59;;;;;;;12.15;7.45;;;12.30;98.90;;;;;;5063842;28;20090;-77
2021/10/30 00:52:26;;;;;;;11.63;7.47;;;12.30;98.90;;;;;;5051860;28;20063;-77
2021/10/30 00:54:54;;;;;;;14.07;8.10;;;12.30;98.90;;;;;;5052349;28;20378;-76
2021/10/30 00:57:22;;;;;;;12.88;7.63;;;12.30;98.90;;;;;;5053300;28;20029;-77
2021/10/30 00:59:48;;;;;;;12.18;7.68;;;12.30;98.90;;;;;;5052392;28;20104;-77
2021/10/30 01:02:13;;;;;;;11.70;7.70;;;12.30;98.90;;;;;;5035588;28;20029;-76
2021/10/30 01:04:39;;;;;;;12.25;8.07;;;12.20;98.90;;;;;;5051966;28;20033;-76
2021/10/30 01:07:05;;;;;;;11.20;7.35;;;12.30;98.90;;;;;;5055002;28;20067;-76
2021/10/30 01:09:31;;;;;;;13.70;8.35;;;12.20;98.90;;;;;;5071592;28;20029;-76
2021/10/30 01:11:57;;;;;;;11.27;7.93;;;12.20;98.90;;;;;;5057286;28;20036;-77
2021/10/30 01:14:23;;;;;;;11.93;8.00;;;12.20;98.90;;;;;;5054994;28;20025;-77
2021/10/30 01:16:57;;;;;;;14.63;8.95;;;12.20;98.90;;;;;;5039357;28;20029;-76
2021/10/30 01:19:23;;;;;;;14.15;8.30;;;12.20;98.90;;;;;;5055942;28;20040;-76
2021/10/30 01:21:49;;;;;;;15.88;8.30;;;12.20;98.90;;;;;;5056988;28;20021;-76
2021/10/30 01:24:14;;;;;;;15.57;8.80;;;12.20;98.90;;;;;;5039187;28;20028;-76
2021/10/30 01:26:40;;;;;;;11.05;8.10;;;12.10;98.80;;;;;;5055742;28;20060;-76
2021/10/30 01:29:06;;;;;;;12.15;8.00;;;12.20;98.90;;;;;;5055496;28;20078;-76
2021/10/30 01:31:32;;;;;;;13.57;8.67;;;12.10;98.80;;;;;;5056898;28;20052;-76
2021/10/30 01:34:03;;;;;;;12.85;8.10;;;12.10;98.80;;;;;;5055524;28;20071;-76
2021/10/30 01:36:31;;;;;;;12.60;7.68;;;12.00;98.80;;;;;;5055826;28;20029;-77
2021/10/30 01:38:56;;;;;;;12.43;8.52;;;12.00;98.80;;;;;;5055729;28;20123;-77
2021/10/30 01:41:24;;;;;;;13.85;8.90;;;12.00;98.80;;;;;;5055510;28;20063;-77
2021/10/30 01:43:50;;;;;;;13.02;8.18;;;12.00;98.80;;;;;;5038963;28;20029;-76
2021/10/30 01:46:17;;;;;;;12.02;8.55;;;12.00;98.80;;;;;;5056622;28;20029;-76
2021/10/30 01:48:43;;;;;;;13.25;8.50;;;11.90;98.70;;;;;;5055265;28;20029;-76
2021/10/30 01:51:08;;;;;;;13.45;8.40;;;11.90;98.70;;;;;;5057419;28;20380;-76
2021/10/30 01:53:35;;;;;;;14.67;8.97;;;11.90;98.70;;;;;;5055214;28;20025;-76
2021/10/30 01:56:01;;;;;;;14.23;9.63;;;11.80;98.70;;;;;;5055112;28;20021;-76
2021/10/30 01:58:26;;;;;;;14.77;9.13;;;11.80;98.70;;;;;;5056185;28;20021;-76
2021/10/30 02:00:53;;;;;;;15.57;9.73;;;11.80;98.70;;;;;;5038486;28;20036;-76
2021/10/30 02:03:20;;;;;;;13.10;8.40;;;11.70;98.70;;;;;;5054986;28;20025;-76
2021/10/30 02:05:46;;;;;;;14.68;9.90;;;11.80;98.70;;;;;;5054931;28;20033;-76
2021/10/30 02:08:11;;;;;;;14.07;9.93;;;11.70;98.80;;;;;;5071079;28;20052;-76
2021/10/30 02:10:37;;;;;;;13.48;8.35;;;11.70;98.80;;;;;;5038720;28;20053;-76
2021/10/30 02:13:03;;;;;;;16.02;10.52;;;11.70;98.90;;;;;;5055107;28;20342;-76
2021/10/30 02:15:28;;;;;;;13.30;9.32;;;11.70;98.90;;;;;;5055001;28;20121;-77
2021/10/30 02:17:54;;;;;;;15.98;10.35;;;11.70;98.90;;;;;;5038475;28;20025;-77
2021/10/30 02:20:21;;;;;;;16.00;9.88;;;11.70;99.00;;;;;;5055121;28;20048;-77
2021/10/30 02:22:51;;;;;;;16.30;9.73;;;11.70;99.00;;;;;;5056562;28;20104;-77
2021/10/30 02:25:17;;;;;;;14.77;10.27;;;11.70;99.00;;;;;;5056913;28;20112;-76
2021/10/30 02:27:43;;;;;;;17.65;10.20;;;11.80;99.10;;;;;;5068584;28;20155;-76
2021/10/30 02:30:09;;;;;;;13.50;9.17;;;11.80;99.10;;;;;;5055761;28;20536;-76
2021/10/30 02:32:34;;;;;;;18.80;9.70;;;11.80;99.10;;;;;;5070716;28;20095;-76
2021/10/30 02:35:00;;;;;;;13.48;9.45;;;11.80;99.10;;;;;;5054391;28;20048;-76
2021/10/30 02:37:26;;;;;;;16.25;9.30;;;11.80;99.10;;;;;;5055664;28;20067;-77
2021/10/30 02:39:51;;;;;;;16.60;10.20;;;11.90;99.20;;;;;;5054424;28;20037;-77
2021/10/30 02:42:17;;;;;;;13.20;9.07;;;11.90;99.20;;;;;;5070879;28;20032;-77
2021/10/30 02:44:42;;;;;;;13.32;9.43;;;11.90;99.20;;;;;;5054184;28;20477;-77
2021/10/30 02:47:08;;;;;;;15.18;8.95;;;11.80;99.20;;;;;;5054261;28;20504;-77
2021/10/30 02:49:34;;;;;;;16.77;9.57;;;11.90;99.20;;;;;;5055547;28;20040;-77
2021/10/30 02:52:00;;;;;;;13.10;9.18;;;11.90;99.20;;;;;;5054893;28;20646;-76
2021/10/30 02:54:25;;;;;;;13.02;9.32;;;11.90;99.20;;;;;;5058063;28;20028;-76
2021/10/30 02:56:52;;;;;;;14.15;8.10;;;11.90;99.20;;;;;;5057931;28;20469;-76
2021/10/30 02:59:17;;;;;;;12.98;8.23;;;11.90;99.30;;;;;;5057807;28;20033;-77
2021/10/30 03:01:43;;;;;;;11.52;8.38;;;11.90;99.30;;;;;;5057950;28;20036;-76
2021/10/30 03:04:09;;;;;;;12.75;7.97;;;11.90;99.30;;;;;;5039959;28;20033;-76
2021/10/30 03:06:35;;;;;;;12.75;8.43;;;11.90;99.30;;;;;;5057198;28;20108;-77
2021/10/30 03:09:02;;;;;;;13.40;9.05;;;11.90;99.40;;;;;;5056309;28;20033;-77
2021/10/30 03:11:28;;;;;;;11.57;7.60;;;11.90;99.40;;;;;;5056185;28;20021;-77
2021/10/30 03:13:53;;;;;;;12.45;7.90;;;12.00;99.50;;;;;;5057184;28;20027;-77
2021/10/30 03:16:19;;;;;;;11.48;7.80;;;12.00;99.50;;;;;;5064357;28;20074;-77
2021/10/30 03:18:44;;;;;;;12.90;8.20;;;12.00;99.50;;;;;;5075714;28;20044;-77
2021/10/30 03:21:10;;;;;;;13.13;7.70;;;12.00;99.50;;;;;;5058304;28;20529;-77
2021/10/30 03:23:36;;;;;;;11.98;7.43;;;12.00;99.50;;;;;;5054994;28;20028;-76
2021/10/30 03:26:02;;;;;;;12.32;7.82;;;12.00;99.50;;;;;;5066332;28;20056;-76
2021/10/30 03:28:28;;;;;;;10.90;6.60;;;12.10;99.50;;;;;;5037432;28;20082;-77
2021/10/30 03:30:53;;;;;;;10.82;6.53;;;12.10;99.40;;;;;;5036815;28;20078;-77
2021/10/30 03:33:19;;;;;;;10.18;7.45;;;12.20;99.50;;;;;;5053738;28;20374;-77
2021/10/30 03:35:45;;;;;;;11.38;7.03;;;12.10;99.40;;;;;;5036918;28;20044;-77
2021/10/30 03:38:10;;;;;;;13.65;6.80;;;12.10;99.40;;;;;;5054220;28;20500;-77
2021/10/30 03:40:36;;;;;;;15.23;7.85;;;12.10;99.60;;;;;;5054825;28;20028;-77
2021/10/30 03:43:02;;;;;;;10.73;7.25;;;12.20;99.40;;;;;;5053868;28;20029;-77
2021/10/30 03:45:27;;;;;;;10.60;6.90;;;12.10;99.40;;;;;;5037261;28;20112;-77
2021/10/30 03:47:53;;;;;;;11.80;7.38;;;12.10;99.40;;;;;;5053904;28;20057;-77
2021/10/30 03:50:19;;;;;;;11.88;7.95;;;12.10;99.30;;;;;;5036407;28;20151;-77
2021/10/30 03:52:44;;;;;;;11.52;7.63;;;12.20;99.30;;;;;;5054966;28;20021;-77
2021/10/30 03:55:10;;;;;;;11.57;7.70;;;12.20;99.40;;;;;;5054381;28;20025;-77
2021/10/30 03:57:36;;;;;;;13.10;8.00;;;12.10;99.30;;;;;;5053446;28;20450;-77
2021/10/30 04:00:04;;;;;;;13.48;9.18;;;12.20;99.30;;;;;;5054234;28;20036;-77
2021/10/30 04:02:30;;;;;;;13.48;9.60;;;12.20;99.30;;;;;;5053024;28;20020;-77
2021/10/30 04:04:56;;;;;;;14.82;10.02;;;12.20;99.30;;;;;;5036281;28;20036;-77
2021/10/30 04:07:21;;;;;;;15.00;9.13;;;12.20;99.30;;;;;;5053098;28;20362;-77
2021/10/30 04:09:47;;;;;;;14.35;9.13;;;12.20;99.30;;;;;;5036243;28;20477;-77
2021/10/30 04:12:12;;;;;;;15.93;10.55;;;12.20;99.30;;;;;;5054047;28;20036;-77
2021/10/30 04:14:38;;;;;;;16.13;10.65;;;12.20;99.60;;;;;;5053859;28;20021;-77
2021/10/30 04:17:05;;;;;;;14.60;9.57;;;12.30;99.30;;;;;;5074223;28;20108;-77
2021/10/30 04:19:30;;;;;;;14.20;10.00;;;12.30;99.30;;;;;;5072807;28;20063;-77
2021/10/30 04:21:56;;;;;;;15.27;10.30;;;12.30;99.30;;;;;;5054551;28;20029;-77
2021/10/30 04:24:22;;;;;;;18.50;10.15;;;12.30;99.50;;;;;;5052654;28;20492;-76
2021/10/30 04:26:47;;;;;;;15.43;10.13;;;12.30;99.30;;;;;;5036231;28;20123;-76
2021/10/30 04:29:14;;;;;;;18.25;10.75;;;12.30;99.30;;;;;;5043188;28;20373;-76
2021/10/30 04:31:41;;;;;;;16.58;11.20;;;12.30;99.20;;;;;;5036254;28;20025;-76
2021/10/30 04:34:07;;;;;;;17.67;11.52;;;12.30;99.20;;;;;;5063071;28;20043;-77
2021/10/30 04:36:35;;;;;;;15.68;10.45;;;12.30;99.20;;;;;;5047791;28;20392;-76
2021/10/30 04:39:03;;;;;;;19.00;11.60;;;12.30;99.10;;;;;;5070579;28;20036;-77
2021/10/30 04:41:29;;;;;;;19.10;11.45;;;12.30;99.10;;;;;;5070644;28;20114;-77
2021/10/30 04:43:56;;;;;;;19.23;11.55;;;12.30;99.00;;;;;;5072331;28;20042;-76
2021/10/30 04:46:23;;;;;;;18.70;12.68;;;12.30;99.00;;;;;;5071367;28;20024;-76
2021/10/30 04:48:50;;;;;;;18.48;11.75;;;12.30;98.90;;;;;;5069830;28;20048;-77
2021/10/30 04:51:16;;;;;;;19.95;11.80;;;12.30;98.90;;;;;;5071225;28;20029;-76
2021/10/30 04:53:43;;;;;;;19.88;12.30;;;12.30;98.80;;;;;;5057596;28;20033;-76
2021/10/30 04:56:10;;;;;;;20.52;12.35;;;12.30;98.80;;;;;;5067926;28;20020;-77
2021/10/30 04:58:41;;;;;;;21.08;13.45;;;12.30;98.70;;;;;;5066106;28;20036;-76
2021/10/30 05:01:07;;;;;;;20.33;12.68;;;12.30;98.70;;;;;;5051962;28;20032;-76
2021/10/30 05:03:33;;;;;;;17.13;12.38;;;12.30;98.60;;;;;;5053366;28;20372;-77
2021/10/30 05:05:58;;;;;;;19.83;12.68;;;12.30;98.50;;;;;;5063003;28;20028;-76
2021/10/30 05:08:24;;;;;;;18.30;12.13;;;12.30;98.40;;;;;;5064137;28;20017;-76
2021/10/30 05:10:49;;;;;;;17.30;11.43;;;12.30;98.40;;;;;;5063729;28;20079;-76
2021/10/30 05:13:15;;;;;;;19.88;12.23;;;12.30;98.40;;;;;;5071701;28;20040;-76
2021/10/30 05:15:41;;;;;;;23.15;11.98;;;12.30;98.40;;;;;;5064872;28;20020;-76
2021/10/30 05:18:06;;;;;;;16.83;11.30;;;12.30;98.30;;;;;;5037642;28;20551;-77
2021/10/30 05:20:32;;;;;;;18.85;12.27;;;12.30;98.30;;;;;;5068249;28;20130;-76
2021/10/30 05:22:58;;;;;;;17.95;11.18;;;12.30;98.20;;;;;;5071018;28;20489;-78
2021/10/30 05:25:24;;;;;;;20.95;11.40;;;12.30;98.20;;;;;;5070968;28;20036;-77
2021/10/30 05:27:50;;;;;;;21.08;10.90;;;12.30;98.10;;;;;;5070743;28;20032;-76
2021/10/30 05:30:16;;;;;;;16.77;9.98;;;12.30;98.40;;;;;;5054807;28;20032;-78
2021/10/30 05:32:42;;;;;;;17.05;10.48;;;12.30;98.00;;;;;;5072939;28;20029;-76
2021/10/30 05:35:08;;;;;;;17.77;10.55;;;12.30;98.00;;;;;;5072860;28;20060;-76
2021/10/30 05:37:34;;;;;;;16.10;9.32;;;12.30;98.00;;;;;;5071592;28;20021;-75
2021/10/30 05:40:00;;;;;;;16.80;9.73;;;12.30;98.30;;;;;;5038355;28;20595;-75
2021/10/30 05:42:26;;;;;;;17.88;9.88;;;12.30;98.00;;;;;;5071740;28;20040;-75
2021/10/30 05:44:52;;;;;;;15.80;9.32;;;12.30;97.90;;;;;;5061189;28;20056;-75
2021/10/30 05:47:18;;;;;;;13.75;8.32;;;12.30;97.90;;;;;;5051579;28;20040;-75
2021/10/30 05:49:44;;;;;;;16.05;9.13;;;12.30;97.90;;;;;;5052515;28;20087;-74
2021/10/30 05:52:11;;;;;;;15.10;8.55;;;12.30;97.90;;;;;;5052524;28;20381;-75
2021/10/30 05:54:38;;;;;;;15.70;8.77;;;12.30;97.90;;;;;;5034745;28;20031;-75
2021/10/30 05:57:04;;;;;;;15.60;8.65;;;12.30;97.80;;;;;;5052703;28;20437;-74
2021/10/30 05:59:30;;;;;;;13.90;8.48;;;12.30;97.80;;;;;;5052920;28;20561;-74
2021/10/30 06:01:56;;;;;;;14.95;7.65;;;12.30;97.80;;;;;;5067634;28;20124;-74
2021/10/30 06:04:22;;;;;;;15.75;9.27;;;12.30;97.80;;;;;;5075991;28;20150;-74
2021/10/30 06:06:48;;;;;;;15.60;8.95;;;12.30;97.80;;;;;;5058422;28;20029;-76
2021/10/30 06:09:14;;;;;;;17.40;9.02;;;12.30;97.80;;;;;;5074849;28;20035;-76
2021/10/30 06:11:40;;;;;;;15.05;8.88;;;12.30;97.80;;;;;;5076348;28;20025;-75
2021/10/30 06:14:06;;;;;;;14.98;8.02;;;12.20;97.80;;;;;;5058273;28;20481;-77
2021/10/30 06:16:35;;;;;;;14.05;8.18;;;12.30;97.80;;;;;;5074934;28;20035;-80
2021/10/30 06:19:01;;;;;;;15.80;9.15;;;12.20;97.80;;;;;;5062080;28;20445;-77
2021/10/30 06:21:27;;;;;;;17.02;8.95;;;12.20;97.80;;;;;;5054805;28;20107;-77
2021/10/30 06:23:54;;;;;;;15.15;9.25;;;12.20;97.90;;;;;;5055958;28;20068;-78
2021/10/30 06:26:20;;;;;;;14.93;9.00;;;12.20;97.90;;;;;;5055981;28;20032;-78
2021/10/30 06:28:46;;;;;;;16.95;9.55;;;12.20;97.90;;;;;;5054606;28;20416;-78
2021/10/30 06:31:12;;;;;;;16.05;9.27;;;12.20;97.90;;;;;;5054691;28;20087;-78
2021/10/30 06:33:37;;;;;;;15.70;9.88;;;12.20;98.00;;;;;;5056128;28;20477;-79
2021/10/30 06:36:03;;;;;;;16.35;9.93;;;12.20;98.00;;;;;;5071069;28;20547;-77
2021/10/30 06:38:29;;;;;;;16.50;8.93;;;12.20;98.10;;;;;;5074669;28;20048;-79
2021/10/30 06:40:57;;;;;;;16.02;9.77;;;12.30;98.10;;;;;;5075667;28;20067;-79
2021/10/30 06:43:22;;;;;;;14.88;9.90;;;12.20;98.10;;;;;;5064682;28;20489;-79
2021/10/30 06:45:48;;;;;;;13.23;8.85;;;12.20;98.20;;;;;;5071377;28;20055;-78
2021/10/30 06:48:14;;;;;;;17.58;9.02;;;12.20;98.20;;;;;;5054329;28;20028;-80
2021/10/30 06:50:40;;;;;;;14.93;9.25;;;12.20;98.20;;;;;;5054199;28;20021;-78
2021/10/30 06:53:05;;;;;;;14.15;8.65;;;12.20;98.30;;;;;;5055814;28;20036;-75
2021/10/30 06:55:31;;;;;;;15.25;9.48;;;12.20;98.70;;;;;;5054654;28;20037;-77
2021/10/30 06:57:57;;;;;;;21.00;10.23;;;12.10;98.50;;;;;;5054449;28;20033;-80
2021/10/30 07:00:23;;;;;;;15.82;9.95;;;12.10;98.60;;;;;;5037984;28;20036;-78
2021/10/30 07:02:52;;;;;;;16.58;9.48;;;12.20;98.60;;;;;;5054293;28;20025;-79
2021/10/30 07:05:18;;;;;;;15.90;9.38;;;12.20;98.60;;;;;;5054300;28;20372;-79
2021/10/30 07:07:43;;;;;;;19.80;11.70;;;12.20;98.70;;;;;;5054242;28;20029;-78
2021/10/30 07:10:09;;;;;;;17.30;10.75;;;12.20;98.70;;;;;;5054374;28;20036;-77
2021/10/30 07:12:37;;;;;;;21.50;11.07;;;12.20;98.70;;;;;;5056384;28;20033;-77
2021/10/30 07:15:08;;;;;;;17.20;10.40;;;12.20;98.80;;;;;;5063206;28;20040;-77
2021/10/30 07:17:33;;;;;;;18.15;10.88;;;12.20;98.90;;;;;;5063733;28;20056;-78
2021/10/30 07:19:59;;;;;;;16.70;10.15;;;12.10;99.20;;;;;;5063781;28;20068;-78
2021/10/30 07:22:25;;;;;;;17.20;11.05;;;12.20;99.00;;;;;;5052486;28;20112;-77
2021/10/30 07:24:51;;;;;;;17.48;11.20;;;12.20;99.00;;;;;;5055017;28;20029;-77
2021/10/30 07:27:18;;;;;;;18.17;10.60;;;12.20;99.00;;;;;;5055231;28;20112;-78
2021/10/30 07:29:48;;;;;;;14.98;10.32;;;12.20;99.10;;;;;;5053685;28;20485;-79
2021/10/30 07:32:15;;;;;;;17.08;11.00;;;12.20;99.00;;;;;;5055095;28;20112;-78
2021/10/30 07:34:41;;;;;;;15.63;10.43;;;12.20;99.10;;;;;;5053846;28;20466;-78
2021/10/30 07:37:06;;;;;;;17.33;9.75;;;12.20;99.10;;;;;;5063932;28;20040;-78
2021/10/30 07:39:34;;;;;;;15.77;9.45;;;12.20;99.10;;;;;;5063273;28;20068;-77
2021/10/30 07:42:00;;;;;;;21.52;11.73;;;12.30;99.10;;;;;;5049993;28;20025;-78
2021/10/30 07:44:26;;;;;;;20.52;9.50;;;12.20;99.10;;;;;;5061904;28;20112;-78
2021/10/30 07:46:52;;;;;;;14.07;8.60;;;12.30;99.10;;;;;;5045820;28;20528;-79
2021/10/30 07:49:17;;;;;;;16.55;9.43;;;12.30;99.00;;;;;;5060005;28;20033;-78
2021/10/30 07:51:43;;;;;;;18.27;9.77;;;12.30;99.10;;;;;;5064193;28;20020;-79
2021/10/30 07:54:09;;;;;;;13.65;8.30;;;12.30;99.10;;;;;;5060602;28;20070;-78
2021/10/30 07:56:34;;;;;;;12.38;8.15;;;12.30;99.00;;;;;;5070908;28;20481;-80
2021/10/30 07:59:00;;;;;;;13.70;8.05;;;12.40;99.10;;;;;;5057735;28;20037;-80
2021/10/30 08:01:25;;;;;;;15.25;7.90;;;12.40;99.10;;;;;;5058052;28;20040;-79
2021/10/30 08:03:51;;;;;;;13.02;8.15;;;12.40;99.00;;;;;;5064270;28;20083;-79
2021/10/30 08:06:17;;;;;;;14.90;7.85;;;12.40;99.00;;;;;;5064477;28;20037;-79
2021/10/30 08:08:43;;;;;;;12.38;7.43;;;12.40;99.00;;;;;;5054475;28;20365;-79
2021/10/30 08:11:08;;;;;;;12.25;7.10;;;12.40;99.00;;;;;;5046203;28;20116;-80
2021/10/30 08:13:34;;;;;;;10.85;6.70;;;12.40;99.00;;;;;;5053869;28;20390;-80
2021/10/30 08:15:59;;;;;;;14.65;7.55;;;12.50;99.00;;;;;;5070257;28;20033;-79
2021/10/30 08:18:25;;;;;;;12.32;7.43;;;12.40;98.90;;;;;;5069194;28;20040;-78
2021/10/30 08:20:51;;;;;;;12.93;6.75;;;12.60;99.00;;;;;;5066044;28;20529;-77
2021/10/30 08:23:17;;;;;;;14.02;6.70;;;12.50;98.90;;;;;;5069499;28;20027;-79
2021/10/30 08:25:44;;;;;;;10.55;6.47;;;12.50;98.90;;;;;;5053873;28;20047;-78
2021/10/30 08:28:09;;;;;;;12.32;6.88;;;12.50;98.90;;;;;;5069125;28;20108;-76
2021/10/30 08:30:35;;;;;;;9.50;5.82;;;12.50;98.80;;;;;;5051897;28;20536;-77
2021/10/30 08:33:01;;;;;;;13.50;6.43;;;12.50;98.80;;;;;;5053434;28;20108;-76
2021/10/30 08:35:26;;;;;;;9.18;5.78;;;12.60;98.80;;;;;;5052408;28;20085;-78
2021/10/30 08:37:52;;;;;;;12.52;5.70;;;12.60;98.80;;;;;;5066574;28;20029;-77
2021/10/30 08:40:18;;;;;;;13.07;6.15;;;12.60;98.80;;;;;;5072390;28;20025;-77
2021/10/30 08:42:46;;;;;;;10.25;6.57;;;12.60;98.80;;;;;;5073485;28;20027;-78
2021/10/30 08:45:11;;;;;;;11.32;5.50;;;12.60;98.80;;;;;;5073353;28;20048;-78
2021/10/30 08:47:38;;;;;;;11.07;5.45;;;12.70;98.80;;;;;;5055735;28;20105;-79
2021/10/30 08:50:05;;;;;;;12.95;5.70;;;12.70;98.80;;;;;;5073450;28;20036;-78
2021/10/30 08:52:30;;;;;;;9.00;5.05;;;12.70;98.80;;;;;;5073672;28;20028;-78
2021/10/30 08:54:56;;;;;;;8.73;5.10;;;12.70;98.70;;;;;;5073628;28;20429;-78
2021/10/30 08:57:22;;;;;;;8.93;4.82;;;12.70;98.70;;;;;;5055563;28;20384;-79
2021/10/30 08:59:48;;;;;;;9.20;4.80;;;12.80;98.70;;;;;;5059610;28;20032;-79
2021/10/30 09:02:34;;;;;;;12.63;5.22;;;12.80;98.70;;;;;;5073247;28;20107;-78
2021/10/30 09:05:18;;;;;;;7.90;4.82;;;12.80;98.70;;;;;;5072284;28;20058;-78
2021/10/30 09:07:44;;;;;;;;;;;12.80;98.70;;;;;;5072574;28;20016;-78
2021/10/30 09:10:38;;;;;;;9.23;4.88;;;12.80;98.60;;;;;;5055631;28;19912;-79
2021/10/30 09:13:08;;;;;;;11.60;5.77;;;12.90;98.60;;;;;;5071527;28;20039;-79
2021/10/30 09:15:36;;;;;;;8.23;4.68;;;12.80;98.60;;;;;;5072278;28;20013;-76
2021/10/30 09:18:24;;;;;;;11.05;5.47;;;12.90;98.60;;;;;;5071956;28;20020;-78
2021/10/30 09:20:51;;;;;;;11.15;5.20;;;12.90;98.60;;;;;;5061484;28;20666;-78
2021/10/30 09:23:20;;;;;;;9.60;4.45;;;12.90;98.60;;;;;;5072265;28;20021;-77
2021/10/30 09:25:58;;;;;;;10.05;4.85;;;12.90;98.60;;;;;;5061464;28;20024;-77
2021/10/30 09:28:25;;;;;;;13.93;6.05;;;12.90;98.60;;;;;;5053472;28;20022;-77
2021/10/30 09:31:11;;;;;;;11.10;4.78;;;12.90;98.60;;;;;;5035522;28;20393;-77
2021/10/30 09:33:47;;;;;;;7.05;4.07;;;12.90;98.60;;;;;;5052163;28;20075;-77
2021/10/30 09:36:14;;;;;;;9.18;4.85;;;13.00;98.60;;;;;;5058407;28;20055;-78
2021/10/30 09:38:42;;;;;;;8.80;4.60;;;13.00;98.50;;;;;;5061634;28;20414;-79
2021/10/30 09:41:30;;;;;;;10.68;4.63;;;12.90;98.50;;;;;;5061450;28;20029;-78
2021/10/30 09:44:06;;;;;;;7.43;3.90;;;13.00;98.50;;;;;;5073725;28;20085;-77
2021/10/30 09:46:56;;;;;;;8.38;4.15;;;13.10;98.50;;;;;;5059589;28;20559;-77
2021/10/30 09:49:21;;;;;;;10.25;4.18;;;13.10;98.50;;;;;;5066587;28;20480;-78
2021/10/30 09:51:49;;;;;;;9.80;4.15;;;13.10;98.50;;;;;;5070056;28;20122;-79
2021/10/30 09:54:35;;;;;;;8.90;4.25;;;13.10;98.50;;;;;;5075492;28;20074;-77
2021/10/30 09:57:02;;;;;;;7.75;3.92;;;13.20;98.50;;;;;;5075787;28;20031;-78
2021/10/30 09:59:30;;;;;;;7.93;4.00;;;13.20;98.60;;;;;;5075198;28;20379;-79
2021/10/30 10:01:56;;;;;;;7.03;3.83;;;13.20;98.60;;;;;;5076569;28;20083;-79
2021/10/30 10:04:23;;;;;;;6.68;3.55;;;13.20;98.80;;;;;;5058753;28;20431;-77
2021/10/30 10:06:50;;;;;;;7.32;4.00;;;13.30;98.60;;;;;;5075129;28;20493;-78
2021/10/30 10:09:17;;;;;;;6.20;3.60;;;13.30;98.60;;;;;;5058547;28;20040;-78
2021/10/30 10:11:47;;;;;;;8.30;4.30;;;13.40;98.60;;;;;;5056618;28;20032;-75
2021/10/30 10:14:18;;;;;;;7.07;3.55;;;13.30;98.60;;;;;;5055721;28;20031;-80
2021/10/30 10:16:48;;;;;;;8.18;3.92;;;13.30;98.60;;;;;;5056782;28;20029;-78
2021/10/30 10:19:14;;;;;;;6.00;3.08;;;13.30;98.60;;;;;;5056657;28;20057;-78
2021/10/30 10:21:40;;;;;;;7.80;4.07;;;13.30;98.70;;;;;;5056533;28;20025;-81
2021/10/30 10:24:26;;;;;;;8.48;3.25;;;13.40;98.70;;;;;;5064344;28;20035;-79
2021/10/30 10:26:54;;;;;;;8.30;3.67;;;13.30;98.70;;;;;;5066709;28;20393;-78
2021/10/30 10:29:34;;;;;;;5.30;3.13;;;13.30;98.70;;;;;;5072960;28;20035;-80
2021/10/30 10:32:02;;;;;;;9.18;4.13;;;13.30;98.80;;;;;;5075649;28;20388;-80
2021/10/30 10:34:37;;;;;;;8.07;3.80;;;13.30;98.70;;;;;;5075062;28;20108;-78
2021/10/30 10:37:12;;;;;;;6.70;3.38;;;13.30;98.80;;;;;;5058553;28;20124;-79
2021/10/30 10:39:43;;;;;;;6.25;3.65;;;13.30;98.90;;;;;;5066269;28;20037;-77
2021/10/30 10:42:14;;;;;;;8.98;3.72;;;13.30;98.90;;;;;;5054627;28;20033;-78
2021/10/30 10:44:42;;;;;;;7.60;3.42;;;13.30;99.00;;;;;;5055063;28;20060;-80
2021/10/30 10:47:34;;;;;;;7.80;4.32;;;13.30;98.90;;;;;;5055064;28;20033;-80
2021/10/30 10:50:15;;;;;;;6.15;3.60;;;13.30;99.10;;;;;;5045704;28;20119;-78
2021/10/30 10:53:19;;;;;;;6.97;3.63;;;13.30;99.10;;;;;;5075036;28;20021;-79
2021/10/30 10:55:44;;;;;;;8.05;3.67;;;13.30;99.20;;;;;;5074617;28;20021;-76
2021/10/30 10:58:12;;;;;;;11.23;3.70;;;13.40;99.20;;;;;;5072629;28;20476;-77
2021/10/30 11:00:58;;;;;;;7.55;4.20;;;13.40;99.20;;;;;;5057698;28;20032;-76
2021/10/30 11:03:28;;;;;;;5.90;3.50;;;13.40;99.20;;;;;;5069400;28;20071;-80
2021/10/30 11:05:58;;;;;;;9.68;3.95;;;13.40;99.30;;;;;;5073096;28;20074;-77
2021/10/30 11:08:32;;;;;;;8.27;3.83;;;13.40;99.30;;;;;;5065560;28;20115;-80
2021/10/30 11:11:33;;;;;;;7.97;3.60;;;13.40;99.30;;;;;;5053712;28;20028;-77
2021/10/30 11:14:04;;;;;;;9.48;3.95;;;13.40;99.30;;;;;;5013229;28;20049;-78
2021/10/30 11:16:36;;;;;;;6.53;3.67;;;13.40;99.30;;;;;;5076868;28;20045;-76
2021/10/30 11:19:06;;;;;;;8.52;4.25;;;13.40;99.30;;;;;;5073974;28;20419;-77
2021/10/30 11:21:34;;;;;;;6.18;3.42;;;13.40;99.60;;;;;;5108924;28;20024;-76
2021/10/30 11:24:16;;;;;;;5.72;3.40;;;13.50;99.60;;;;;;5094155;28;20029;-76
2021/10/30 11:26:41;;;;;;;8.60;3.65;;;13.50;99.40;;;;;;5075595;28;20032;-75
2021/10/30 11:29:14;;;;;;;6.53;3.25;;;13.50;99.40;;;;;;5058008;28;20033;-77
2021/10/30 11:31:41;;;;;;;7.78;3.50;;;13.50;99.40;;;;;;5053904;28;20481;-79
2021/10/30 11:34:12;;;;;;;6.72;2.95;;;13.50;99.40;;;;;;5039287;28;20028;-79
2021/10/30 11:36:41;;;;;;;5.45;3.17;;;13.60;99.40;;;;;;5061565;28;20029;-77
2021/10/30 11:39:09;;;;;;;7.60;3.60;;;13.50;99.70;;;;;;5069406;28;20068;-78
2021/10/30 11:41:36;;;;;;;7.70;3.33;;;13.50;99.40;;;;;;5060968;28;20025;-79
2021/10/30 11:44:06;;;;;;;8.23;3.17;;;13.60;99.40;;;;;;5047593;28;20044;-79
2021/10/30 11:46:36;;;;;;;6.35;3.17;;;13.60;99.40;;;;;;5064107;28;20025;-79
2021/10/30 11:49:02;;;;;;;7.93;3.13;;;13.60;99.40;;;;;;5065837;28;20024;-77
2021/10/30 11:51:33;;;;;;;6.65;3.35;;;13.60;99.40;;;;;;5078561;28;20107;-77
2021/10/30 11:54:01;;;;;;;9.60;3.20;;;13.70;99.50;;;;;;5077033;28;20020;-77
2021/10/30 11:56:29;;;;;;;6.10;3.60;;;13.70;99.40;;;;;;5063177;28;20088;-76
2021/10/30 11:59:08;;;;;;;5.78;3.05;;;13.80;99.40;;;;;;5055727;28;20029;-77
2021/10/30 12:01:36;;;;;;;9.00;3.55;;;13.80;99.40;;;;;;5053631;28;20029;-77
2021/10/30 12:04:01;;;;;;;4.45;2.47;;;13.80;99.30;;;;;;5054595;28;20033;-79
2021/10/30 12:06:44;;;;;;;4.85;2.70;;;13.90;99.30;;;;;;5052976;28;20029;-79
2021/10/30 12:09:22;;;;;;;5.13;2.80;;;13.90;99.20;;;;;;5054059;28;20025;-78
2021/10/30 12:11:49;;;;;;;5.72;2.47;;;13.90;99.10;;;;;;5054417;28;20028;-79
2021/10/30 12:14:26;;;;;;;5.88;3.40;;;14.00;99.00;;;;;;5052925;28;20040;-78
2021/10/30 12:16:53;;;;;;;4.63;2.47;;;14.00;99.00;;;;;;5054301;28;20021;-79
2021/10/30 12:19:23;;;;;;;7.95;2.80;;;14.00;99.20;;;;;;5052906;28;20520;-79
2021/10/30 12:21:49;;;;;;;3.47;2.10;;;14.10;99.20;;;;;;5054159;28;20017;-78
2021/10/30 12:24:28;;;;;;;5.50;2.40;;;14.20;98.90;;;;;;5054334;28;20052;-79
2021/10/30 12:26:58;;;;;;;4.88;2.33;;;14.20;98.90;;;;;;5053518;28;20040;-78
2021/10/30 12:29:28;;;;;;;5.40;2.45;;;14.40;98.90;;;;;;5059640;28;20146;-80
2021/10/30 12:32:09;;;;;;;3.35;1.80;;;14.60;99.20;;;;;;5073917;28;20021;-78
2021/10/30 12:34:36;;;;;;;5.60;1.98;;;14.80;99.00;;;;;;5073702;28;20020;-80
2021/10/30 12:37:13;;;;;;;4.68;2.60;;;14.90;98.30;;;;;;5052783;28;20025;-78
2021/10/30 12:39:54;;;;;;;4.30;2.03;;;14.90;97.80;;;;;;5057673;28;20021;-80
2021/10/30 12:42:20;;;;;;;5.50;2.40;;;15.00;97.60;;;;;;5069914;28;20060;-79